Skip Navigation Links
NOAA logo - Click to go to the NOAA homepage
NOAA's National Weather Service
Alaska Aviation Weather Unit
  NWS logo - Click to go to the NWS homepage
Left Navbar Graphic     22 AKDT = 06 GMT

   
NOAA is celebrating 200 years of science, service, and stewardship. Visit the NOAA 200th celebration Web site to learn more.
USA.gov is the U.S. Government's official Web portal to all Federal, state and local government Web resources and services.
Facebook
NWS on Facebook

Important Change Regarding the AAWU Web Presence

 

Over the last several months, the AAWU has been working to navigate its webpages to a nationally supported server. Security, as well as other needs, have necessitated the change.  In the process, we have made an effort to enhance the functionality of our website, as well as some of our products. As of June 20, 2017, aawu.arh.noaa.gov will be discontinued. The new AAWU web address is weather.gov/aawu. It is now live and will run in-parallel with the old site until it is discontinued. Please send any feedback or questions regarding the new webpages to nws.ar.aawu.webauthors@noaa.gov.  Thank you for your patience during this time of transition.
AAWU Home :: Display TAF Add Bookmark
TAF PASD 280538Z 2806/2906 02008KT P6SM BKN020 OVC035
     FM282000 34007KT P6SM SCT020 SCT060
      AMD LTD TO CLD VIS AND WIND=
METAR PASD 280016Z 01009KT 10SM FEW017 SCT029 BKN039 07/04 A2983 RMK AO1
     WEA: NONE (DA)=

SPECI PASD 280020Z AUTO 36010KT 10SM -RA FEW017 BKN025 BKN038 07/03
     A2983 RMK (DA)=

METAR PASD 280036Z 36010KT 10SM FEW017 BKN025 BKN038 07/03 A2983 RMK
 AO1
 WEA: -RA (DA)=

METAR PASD 280056Z 35010KT 10SM FEW016 SCT021 BKN027 07/04 A2983 RMK AO1
     WEA: -RA (DA)=

METAR PASD 280116Z 35010KT 10SM FEW016 SCT021 BKN027 07/04 A2983 RMK
 AO1
 WEA: -RA (DA)=

METAR PASD 280136Z 02010G15KT 10SM FEW016 SCT021 BKN027 07/04 A2983 RMK
     AO1 WEA: -RA (DA)=

METAR PASD 280156Z 03010G15KT 10SM FEW011 SCT019 OVC025 06/04 A2983
 RMK AO1
 WEA: -RA CIG LWR SW (DA)=

METAR PASD 280216Z 02009G17KT 10SM FEW011 SCT019 OVC025 06/04 A2983 RMK
     AO1 WEA: -RA CIG LWR SW (DA)=

METAR PASD 280236Z 03009KT 10SM FEW011 SCT019 OVC025 06/04 A2983 RMK AO1
     WEA: -RA CIG LWR SW (DA)=

METAR PASD 280256Z 02009KT 10SM FEW012 BKN021 OVC027 06/04 A2982 RMK
 AO1
 WEA: -RA LAST (DA) 57003=

METAR PASD 280316Z 03007KT 10SM BKN021 OVC027 06/04 A2982 RMK AO1 WEA:
     -RA LAST (DA)=

METAR PASD 280336Z 03010KT 10SM OVC026 06/04 A2981 RMK AO1
 WEA: -RA LAST (DA)=

METAR PASD 280356Z 03009KT 10SM BKN026 OVC033 06/03 A2981 RMK AO1 WEA:
     -RA LAST (DA)=

METAR PASD 280416Z 03007KT 10SM SCT020 BKN028 OVC033 06/03 A2981 RMK AO1
     WEA: -RA LAST (DA)=

METAR PASD 280436Z 02008KT 10SM BKN020 BKN030 OVC060 06/04 A2981 RMK AO1
     WEA: -RA LAST (DA)=

METAR PASD 280456Z AUTO 02005KT 10SM BKN020 OVC035 06/04 A2981 RMK
 AO1
 WEA: -RA LAST (DA)=

METAR PASD 280516Z AUTO 01006KT 10SM BKN020 BKN029 OVC035 06/04
 A2981 RMK AO1=

METAR PASD 280536Z AUTO 01007KT 10SM SCT020 OVC029 06/04 A2980 RMK
     AO1=

METAR PASD 280556Z AUTO 36006KT 10SM SCT023 OVC029 06/04 A2980 RMK
 AO1 10070 20060 57007=

METAR PASD 280616Z AUTO 34005KT 10SM BKN010 BKN021 OVC029 06/04
 A2981 RMK AO1=


NOAA's National Weather Service
Alaska Aviation Weather Unit
6930 Sand Lake Road
Anchorage, AK 99502-1845
Disclaimer
Credits
Glossary
Privacy Policy
About Us
Career Opportunities
Contact AAWU Internet Services Site last modified: April, 17th 2012